sensor_id;sensor_type;location;lat;lon;timestamp;pressure;altitude;pressure_sealevel;temperature;humidity
57656;BME280;43482;53.334;6.744;2022-12-22T00:00:14;100612.19;;;8.01;100.00
57656;BME280;43482;53.334;6.744;2022-12-22T00:02:58;100606.69;;;8.04;100.00
57656;BME280;43482;53.334;6.744;2022-12-22T00:05:42;100596.72;;;7.98;100.00
57656;BME280;43482;53.334;6.744;2022-12-22T00:08:26;100599.66;;;7.95;100.00
57656;BME280;43482;53.334;6.744;2022-12-22T00:11:10;100593.41;;;7.96;100.00
57656;BME280;43482;53.334;6.744;2022-12-22T00:13:54;100586.22;;;7.98;100.00
57656;BME280;43482;53.334;6.744;2022-12-22T00:16:40;100585.91;;;8.01;100.00
57656;BME280;43482;53.334;6.744;2022-12-22T00:19:25;100592.56;;;8.05;100.00
57656;BME280;43482;53.334;6.744;2022-12-22T00:22:13;100581.66;;;8.00;100.00
57656;BME280;43482;53.334;6.744;2022-12-22T00:24:59;100580.97;;;7.98;100.00
57656;BME280;43482;53.334;6.744;2022-12-22T00:27:43;100589.09;;;8.04;100.00
57656;BME280;43482;53.334;6.744;2022-12-22T00:30:27;100585.66;;;8.04;100.00
57656;BME280;43482;53.334;6.744;2022-12-22T00:33:11;100598.38;;;8.09;100.00
57656;BME280;43482;53.334;6.744;2022-12-22T00:35:56;100592.00;;;8.11;100.00
57656;BME280;43482;53.334;6.744;2022-12-22T00:38:40;100592.44;;;8.07;100.00
57656;BME280;43482;53.334;6.744;2022-12-22T00:41:24;100593.94;;;8.09;100.00
57656;BME280;43482;53.334;6.744;2022-12-22T00:44:08;100587.31;;;8.05;100.00
57656;BME280;43482;53.334;6.744;2022-12-22T00:46:52;100579.97;;;8.09;100.00
57656;BME280;43482;53.334;6.744;2022-12-22T00:49:36;100574.84;;;8.07;100.00
57656;BME280;43482;53.334;6.744;2022-12-22T00:52:22;100568.09;;;8.04;100.00
57656;BME280;43482;53.334;6.744;2022-12-22T00:55:13;100567.41;;;8.02;100.00
57656;BME280;43482;53.334;6.744;2022-12-22T00:57:57;100572.34;;;8.06;100.00
57656;BME280;43482;53.334;6.744;2022-12-22T01:00:41;100567.66;;;8.09;100.00
57656;BME280;43482;53.334;6.744;2022-12-22T01:03:25;100579.84;;;8.10;100.00
57656;BME280;43482;53.334;6.744;2022-12-22T01:06:09;100573.47;;;8.13;100.00
57656;BME280;43482;53.334;6.744;2022-12-22T01:08:53;100580.94;;;8.17;100.00
57656;BME280;43482;53.334;6.744;2022-12-22T01:11:37;100574.84;;;8.17;100.00
57656;BME280;43482;53.334;6.744;2022-12-22T01:14:21;100576.63;;;8.16;100.00
57656;BME280;43482;53.334;6.744;2022-12-22T01:17:05;100568.47;;;8.10;100.00
57656;BME280;43482;53.334;6.744;2022-12-22T01:19:49;100571.53;;;8.15;100.00
57656;BME280;43482;53.334;6.744;2022-12-22T01:22:33;100573.19;;;8.16;100.00
57656;BME280;43482;53.334;6.744;2022-12-22T01:25:17;100574.00;;;8.26;100.00
57656;BME280;43482;53.334;6.744;2022-12-22T01:28:01;100568.19;;;8.32;100.00
57656;BME280;43482;53.334;6.744;2022-12-22T01:30:45;100564.81;;;8.40;100.00
57656;BME280;43482;53.334;6.744;2022-12-22T01:33:29;100555.72;;;8.34;100.00
57656;BME280;43482;53.334;6.744;2022-12-22T01:36:13;100543.78;;;8.40;100.00
57656;BME280;43482;53.334;6.744;2022-12-22T01:38:57;100545.19;;;8.44;100.00
57656;BME280;43482;53.334;6.744;2022-12-22T01:41:41;100539.38;;;8.40;100.00
57656;BME280;43482;53.334;6.744;2022-12-22T01:44:25;100540.34;;;8.39;100.00
57656;BME280;43482;53.334;6.744;2022-12-22T01:50:08;100531.78;;;8.47;100.00
57656;BME280;43482;53.334;6.744;2022-12-22T01:52:52;100527.47;;;8.46;100.00
57656;BME280;43482;53.334;6.744;2022-12-22T01:55:37;100532.16;;;8.52;100.00
57656;BME280;43482;53.334;6.744;2022-12-22T01:58:23;100530.72;;;8.58;100.00
57656;BME280;43482;53.334;6.744;2022-12-22T02:01:09;100519.63;;;8.64;100.00
57656;BME280;43482;53.334;6.744;2022-12-22T02:03:53;100511.31;;;8.69;100.00
57656;BME280;43482;53.334;6.744;2022-12-22T02:06:38;100512.00;;;8.71;100.00
57656;BME280;43482;53.334;6.744;2022-12-22T02:12:24;100494.69;;;8.68;100.00
57656;BME280;43482;53.334;6.744;2022-12-22T02:15:17;100483.03;;;8.71;100.00
57656;BME280;43482;53.334;6.744;2022-12-22T02:18:39;100485.69;;;8.71;100.00
57656;BME280;43482;53.334;6.744;2022-12-22T02:21:16;100484.03;;;8.70;100.00
57656;BME280;43482;53.334;6.744;2022-12-22T02:24:17;100475.84;;;8.73;100.00
57656;BME280;43482;53.334;6.744;2022-12-22T02:27:03;100468.63;;;8.75;100.00
57656;BME280;43482;53.334;6.744;2022-12-22T02:29:51;100465.19;;;8.74;100.00
57656;BME280;43482;53.334;6.744;2022-12-22T02:32:36;100456.16;;;8.77;100.00
57656;BME280;43482;53.334;6.744;2022-12-22T02:35:21;100462.78;;;8.81;100.00
57656;BME280;43482;53.334;6.744;2022-12-22T02:38:11;100447.81;;;8.81;100.00
57656;BME280;43482;53.334;6.744;2022-12-22T02:46:41;100426.72;;;8.91;100.00
57656;BME280;43482;53.334;6.744;2022-12-22T02:49:31;100421.13;;;8.94;100.00
57656;BME280;43482;53.334;6.744;2022-12-22T02:52:23;100415.38;;;8.91;100.00
57656;BME280;43482;53.334;6.744;2022-12-22T02:55:09;100403.53;;;8.95;100.00
57656;BME280;43482;53.334;6.744;2022-12-22T02:57:53;100413.63;;;8.99;100.00
57656;BME280;43482;53.334;6.744;2022-12-22T03:00:41;100401.13;;;9.01;100.00
57656;BME280;43482;53.334;6.744;2022-12-22T03:03:25;100397.53;;;9.02;100.00
57656;BME280;43482;53.334;6.744;2022-12-22T03:06:09;100389.78;;;9.01;100.00
57656;BME280;43482;53.334;6.744;2022-12-22T03:08:53;100381.75;;;9.02;100.00
57656;BME280;43482;53.334;6.744;2022-12-22T03:11:37;100377.28;;;9.03;100.00
57656;BME280;43482;53.334;6.744;2022-12-22T03:14:21;100381.44;;;9.05;100.00
57656;BME280;43482;53.334;6.744;2022-12-22T03:17:04;100378.34;;;9.10;100.00
57656;BME280;43482;53.334;6.744;2022-12-22T03:19:48;100372.78;;;9.13;100.00
57656;BME280;43482;53.334;6.744;2022-12-22T03:22:32;100358.41;;;9.07;100.00
57656;BME280;43482;53.334;6.744;2022-12-22T03:25:17;100354.28;;;9.05;100.00
57656;BME280;43482;53.334;6.744;2022-12-22T03:28:01;100354.13;;;9.06;100.00
57656;BME280;43482;53.334;6.744;2022-12-22T03:30:27;100350.97;;;9.03;100.00
57656;BME280;43482;53.334;6.744;2022-12-22T03:32:52;100355.09;;;9.05;100.00
57656;BME280;43482;53.334;6.744;2022-12-22T03:35:17;100344.97;;;9.11;100.00
57656;BME280;43482;53.334;6.744;2022-12-22T03:37:43;100339.03;;;9.09;100.00
57656;BME280;43482;53.334;6.744;2022-12-22T03:40:08;100340.44;;;9.03;100.00
57656;BME280;43482;53.334;6.744;2022-12-22T03:42:33;100331.19;;;8.99;100.00
57656;BME280;43482;53.334;6.744;2022-12-22T03:45:17;100322.13;;;8.93;100.00
57656;BME280;43482;53.334;6.744;2022-12-22T03:48:01;100321.50;;;8.81;100.00
57656;BME280;43482;53.334;6.744;2022-12-22T03:50:26;100323.31;;;8.81;100.00
57656;BME280;43482;53.334;6.744;2022-12-22T03:52:52;100319.06;;;8.80;100.00
57656;BME280;43482;53.334;6.744;2022-12-22T03:55:17;100327.84;;;8.89;100.00
57656;BME280;43482;53.334;6.744;2022-12-22T03:57:42;100320.31;;;8.94;100.00
57656;BME280;43482;53.334;6.744;2022-12-22T04:00:08;100325.72;;;8.92;100.00
57656;BME280;43482;53.334;6.744;2022-12-22T04:02:33;100319.06;;;8.80;100.00
57656;BME280;43482;53.334;6.744;2022-12-22T04:04:58;100325.59;;;8.76;100.00
57656;BME280;43482;53.334;6.744;2022-12-22T04:07:23;100326.56;;;8.75;100.00
57656;BME280;43482;53.334;6.744;2022-12-22T04:09:49;100324.91;;;8.74;100.00
57656;BME280;43482;53.334;6.744;2022-12-22T04:12:34;100326.88;;;8.72;100.00
57656;BME280;43482;53.334;6.744;2022-12-22T04:15:17;100320.78;;;8.71;100.00
57656;BME280;43482;53.334;6.744;2022-12-22T04:17:43;100322.97;;;8.76;100.00
57656;BME280;43482;53.334;6.744;2022-12-22T04:20:08;100333.84;;;8.81;100.00
57656;BME280;43482;53.334;6.744;2022-12-22T04:22:33;100331.22;;;8.81;100.00
57656;BME280;43482;53.334;6.744;2022-12-22T04:24:59;100335.50;;;8.82;100.00
57656;BME280;43482;53.334;6.744;2022-12-22T04:27:24;100337.00;;;8.84;100.00
57656;BME280;43482;53.334;6.744;2022-12-22T04:29:49;100329.94;;;8.85;100.00
57656;BME280;43482;53.334;6.744;2022-12-22T04:32:15;100331.44;;;8.88;100.00
57656;BME280;43482;53.334;6.744;2022-12-22T04:34:40;100327.66;;;8.90;100.00
57656;BME280;43482;53.334;6.744;2022-12-22T04:37:05;100329.47;;;8.90;100.00
57656;BME280;43482;53.334;6.744;2022-12-22T04:39:30;100317.13;;;8.90;100.00
57656;BME280;43482;53.334;6.744;2022-12-22T04:41:56;100313.53;;;8.91;100.00
57656;BME280;43482;53.334;6.744;2022-12-22T04:44:21;100307.97;;;8.94;100.00
57656;BME280;43482;53.334;6.744;2022-12-22T04:46:46;100301.88;;;8.94;100.00
57656;BME280;43482;53.334;6.744;2022-12-22T04:49:11;100291.00;;;8.89;100.00
57656;BME280;43482;53.334;6.744;2022-12-22T04:51:37;100291.81;;;8.89;100.00
57656;BME280;43482;53.334;6.744;2022-12-22T04:54:02;100290.16;;;8.88;100.00
57656;BME280;43482;53.334;6.744;2022-12-22T04:56:27;100277.44;;;8.83;100.00
57656;BME280;43482;53.334;6.744;2022-12-22T04:58:52;100277.16;;;8.87;100.00
57656;BME280;43482;53.334;6.744;2022-12-22T05:01:18;100279.94;;;8.85;100.00
57656;BME280;43482;53.334;6.744;2022-12-22T05:03:43;100273.69;;;8.86;100.00
57656;BME280;43482;53.334;6.744;2022-12-22T05:06:09;100274.69;;;8.85;100.00
57656;BME280;43482;53.334;6.744;2022-12-22T05:08:35;100273.00;;;8.84;100.00
57656;BME280;43482;53.334;6.744;2022-12-22T05:11:00;100270.38;;;8.84;100.00
57656;BME280;43482;53.334;6.744;2022-12-22T05:13:26;100278.81;;;8.88;100.00
57656;BME280;43482;53.334;6.744;2022-12-22T05:15:52;100266.63;;;8.87;100.00
57656;BME280;43482;53.334;6.744;2022-12-22T05:18:17;100265.13;;;8.84;100.00
57656;BME280;43482;53.334;6.744;2022-12-22T05:20:42;100266.09;;;8.83;100.00
57656;BME280;43482;53.334;6.744;2022-12-22T05:23:07;100269.41;;;8.85;100.00
57656;BME280;43482;53.334;6.744;2022-12-22T05:25:33;100257.91;;;8.86;100.00
57656;BME280;43482;53.334;6.744;2022-12-22T05:27:58;100265.28;;;8.82;100.00
57656;BME280;43482;53.334;6.744;2022-12-22T05:30:23;100257.84;;;8.78;100.00
57656;BME280;43482;53.334;6.744;2022-12-22T05:32:48;100250.25;;;8.75;100.00
57656;BME280;43482;53.334;6.744;2022-12-22T05:35:14;100248.22;;;8.69;100.00
57656;BME280;43482;53.334;6.744;2022-12-22T05:37:39;100252.69;;;8.50;100.00
57656;BME280;43482;53.334;6.744;2022-12-22T05:40:05;100247.06;;;8.45;100.00
57656;BME280;43482;53.334;6.744;2022-12-22T05:42:31;100240.03;;;8.36;100.00
57656;BME280;43482;53.334;6.744;2022-12-22T05:45:24;100245.50;;;8.24;100.00
57656;BME280;43482;53.334;6.744;2022-12-22T05:47:49;100241.97;;;8.16;100.00
57656;BME280;43482;53.334;6.744;2022-12-22T05:50:16;100245.44;;;8.16;100.00
57656;BME280;43482;53.334;6.744;2022-12-22T05:52:42;100252.03;;;8.02;100.00
57656;BME280;43482;53.334;6.744;2022-12-22T05:55:08;100214.56;;;7.73;100.00
57656;BME280;43482;53.334;6.744;2022-12-22T05:57:33;100251.00;;;7.86;100.00
57656;BME280;43482;53.334;6.744;2022-12-22T05:59:59;100261.59;;;7.76;100.00
57656;BME280;43482;53.334;6.744;2022-12-22T06:02:24;100263.41;;;7.66;100.00
57656;BME280;43482;53.334;6.744;2022-12-22T06:04:49;100261.69;;;7.56;100.00
57656;BME280;43482;53.334;6.744;2022-12-22T06:07:15;100275.63;;;7.57;100.00
57656;BME280;43482;53.334;6.744;2022-12-22T06:09:40;100278.44;;;7.46;100.00
57656;BME280;43482;53.334;6.744;2022-12-22T06:12:05;100278.06;;;7.40;100.00
57656;BME280;43482;53.334;6.744;2022-12-22T06:14:31;100278.63;;;7.34;100.00
57656;BME280;43482;53.334;6.744;2022-12-22T06:16:56;100282.75;;;7.27;100.00
57656;BME280;43482;53.334;6.744;2022-12-22T06:19:22;100287.06;;;7.28;100.00
57656;BME280;43482;53.334;6.744;2022-12-22T06:21:47;100295.19;;;7.35;100.00
57656;BME280;43482;53.334;6.744;2022-12-22T06:24:12;100289.38;;;7.31;100.00
57656;BME280;43482;53.334;6.744;2022-12-22T06:26:37;100288.31;;;7.24;100.00
57656;BME280;43482;53.334;6.744;2022-12-22T06:29:03;100275.63;;;7.10;100.00
57656;BME280;43482;53.334;6.744;2022-12-22T06:31:28;100293.97;;;7.19;100.00
57656;BME280;43482;53.334;6.744;2022-12-22T06:33:53;100294.53;;;7.23;100.00
57656;BME280;43482;53.334;6.744;2022-12-22T06:36:18;100295.78;;;7.19;100.00
57656;BME280;43482;53.334;6.744;2022-12-22T06:38:44;100295.09;;;7.17;100.00
57656;BME280;43482;53.334;6.744;2022-12-22T06:41:09;100296.06;;;7.16;100.00
57656;BME280;43482;53.334;6.744;2022-12-22T06:43:34;100303.25;;;7.14;100.00
57656;BME280;43482;53.334;6.744;2022-12-22T06:45:59;100307.78;;;7.12;100.00
57656;BME280;43482;53.334;6.744;2022-12-22T06:48:25;100302.53;;;7.12;100.00
57656;BME280;43482;53.334;6.744;2022-12-22T06:50:50;100252.19;;;6.79;100.00
57656;BME280;43482;53.334;6.744;2022-12-22T06:53:15;100305.88;;;7.04;100.00
57656;BME280;43482;53.334;6.744;2022-12-22T06:55:41;100306.84;;;7.03;100.00
57656;BME280;43482;53.334;6.744;2022-12-22T06:58:06;100301.06;;;6.99;100.00
57656;BME280;43482;53.334;6.744;2022-12-22T07:00:33;100302.19;;;6.97;100.00
57656;BME280;43482;53.334;6.744;2022-12-22T07:02:58;100312.41;;;6.90;100.00
57656;BME280;43482;53.334;6.744;2022-12-22T07:05:23;100303.00;;;6.88;100.00
57656;BME280;43482;53.334;6.744;2022-12-22T07:07:49;100302.47;;;6.84;100.00
57656;BME280;43482;53.334;6.744;2022-12-22T07:10:14;100296.78;;;6.79;100.00
57656;BME280;43482;53.334;6.744;2022-12-22T07:12:40;100301.50;;;6.75;100.00
57656;BME280;43482;53.334;6.744;2022-12-22T07:15:06;100300.00;;;6.73;100.00
57656;BME280;43482;53.334;6.744;2022-12-22T07:17:31;100305.22;;;6.73;100.00
57656;BME280;43482;53.334;6.744;2022-12-22T07:19:56;100322.19;;;6.78;100.00
57656;BME280;43482;53.334;6.744;2022-12-22T07:22:22;100322.34;;;6.87;100.00
57656;BME280;43482;53.334;6.744;2022-12-22T07:24:47;100336.41;;;6.95;100.00
57656;BME280;43482;53.334;6.744;2022-12-22T07:27:12;100341.66;;;6.95;100.00
57656;BME280;43482;53.334;6.744;2022-12-22T07:29:37;100344.69;;;7.00;100.00
57656;BME280;43482;53.334;6.744;2022-12-22T07:32:04;100347.31;;;6.91;100.00
57656;BME280;43482;53.334;6.744;2022-12-22T07:34:29;100346.22;;;6.93;100.00
57656;BME280;43482;53.334;6.744;2022-12-22T07:36:55;100349.53;;;6.95;100.00
57656;BME280;43482;53.334;6.744;2022-12-22T07:39:20;100358.66;;;6.91;100.00
57656;BME280;43482;53.334;6.744;2022-12-22T07:41:45;100355.31;;;6.89;100.00
57656;BME280;43482;53.334;6.744;2022-12-22T07:44:29;100357.53;;;6.94;100.00
57656;BME280;43482;53.334;6.744;2022-12-22T07:46:54;100352.56;;;6.81;100.00
57656;BME280;43482;53.334;6.744;2022-12-22T07:49:20;100350.47;;;6.75;100.00
57656;BME280;43482;53.334;6.744;2022-12-22T07:52:03;100348.03;;;6.73;100.00
57656;BME280;43482;53.334;6.744;2022-12-22T07:54:29;100357.69;;;6.73;100.00
57656;BME280;43482;53.334;6.744;2022-12-22T07:56:54;100361.53;;;6.78;100.00
57656;BME280;43482;53.334;6.744;2022-12-22T07:59:19;100369.81;;;6.84;100.00
57656;BME280;43482;53.334;6.744;2022-12-22T08:01:45;100369.28;;;6.80;100.00
57656;BME280;43482;53.334;6.744;2022-12-22T08:04:11;100371.91;;;6.80;100.00
57656;BME280;43482;53.334;6.744;2022-12-22T08:06:36;100371.63;;;6.83;100.00
57656;BME280;43482;53.334;6.744;2022-12-22T08:09:02;100384.03;;;6.81;100.00
57656;BME280;43482;53.334;6.744;2022-12-22T08:11:27;100382.94;;;6.74;100.00
57656;BME280;43482;53.334;6.744;2022-12-22T08:13:53;100375.47;;;6.79;100.00
57656;BME280;43482;53.334;6.744;2022-12-22T08:16:18;100371.34;;;6.86;100.00
57656;BME280;43482;53.334;6.744;2022-12-22T08:18:45;100386.94;;;6.88;100.00
57656;BME280;43482;53.334;6.744;2022-12-22T08:21:10;100387.50;;;6.91;100.00
57656;BME280;43482;53.334;6.744;2022-12-22T08:23:36;100389.16;;;6.92;100.00
57656;BME280;43482;53.334;6.744;2022-12-22T08:28:26;100383.91;;;6.92;100.00
57656;BME280;43482;53.334;6.744;2022-12-22T08:30:52;100386.81;;;6.99;100.00
57656;BME280;43482;53.334;6.744;2022-12-22T08:33:17;100384.75;;;7.03;100.00
57656;BME280;43482;53.334;6.744;2022-12-22T08:35:42;100389.03;;;7.04;100.00
57656;BME280;43482;53.334;6.744;2022-12-22T08:38:08;100388.31;;;6.92;100.00
57656;BME280;43482;53.334;6.744;2022-12-22T08:40:34;100396.34;;;7.00;100.00
57656;BME280;43482;53.334;6.744;2022-12-22T08:43:02;100388.06;;;7.05;100.00
57656;BME280;43482;53.334;6.744;2022-12-22T08:45:28;100382.81;;;7.05;100.00
57656;BME280;43482;53.334;6.744;2022-12-22T08:47:54;100383.09;;;6.82;100.00
57656;BME280;43482;53.334;6.744;2022-12-22T08:50:19;100382.09;;;6.83;100.00
57656;BME280;43482;53.334;6.744;2022-12-22T08:52:44;100393.84;;;6.98;100.00
57656;BME280;43482;53.334;6.744;2022-12-22T08:55:10;100391.22;;;6.98;100.00
57656;BME280;43482;53.334;6.744;2022-12-22T08:57:35;100399.09;;;7.08;100.00
57656;BME280;43482;53.334;6.744;2022-12-22T09:00:01;100393.03;;;7.08;100.00
57656;BME280;43482;53.334;6.744;2022-12-22T09:02:27;100398.16;;;6.99;100.00
57656;BME280;43482;53.334;6.744;2022-12-22T09:04:52;100399.09;;;7.08;100.00
57656;BME280;43482;53.334;6.744;2022-12-22T09:07:18;100406.53;;;7.03;100.00
57656;BME280;43482;53.334;6.744;2022-12-22T09:09:43;100412.38;;;7.07;100.00
57656;BME280;43482;53.334;6.744;2022-12-22T09:12:09;100415.81;;;7.17;100.00
57656;BME280;43482;53.334;6.744;2022-12-22T09:14:34;100417.19;;;7.11;100.00
57656;BME280;43482;53.334;6.744;2022-12-22T09:16:59;100415.13;;;7.05;100.00
57656;BME280;43482;53.334;6.744;2022-12-22T09:19:25;100418.72;;;7.14;100.00
57656;BME280;43482;53.334;6.744;2022-12-22T09:21:50;100423.28;;;7.21;100.00
57656;BME280;43482;53.334;6.744;2022-12-22T09:24:15;100417.88;;;7.13;100.00
57656;BME280;43482;53.334;6.744;2022-12-22T09:26:41;100418.72;;;7.14;100.00
57656;BME280;43482;53.334;6.744;2022-12-22T09:29:07;100420.50;;;7.13;100.00
57656;BME280;43482;53.334;6.744;2022-12-22T09:31:32;100428.66;;;7.20;100.00
57656;BME280;43482;53.334;6.744;2022-12-22T09:33:58;100430.72;;;7.26;100.00
57656;BME280;43482;53.334;6.744;2022-12-22T09:36:24;100420.94;;;7.28;100.00
57656;BME280;43482;53.334;6.744;2022-12-22T09:38:50;100418.56;;;7.35;100.00
57656;BME280;43482;53.334;6.744;2022-12-22T09:43:41;100419.53;;;7.44;100.00
57656;BME280;43482;53.334;6.744;2022-12-22T09:46:13;100419.50;;;7.53;100.00
57656;BME280;43482;53.334;6.744;2022-12-22T09:48:42;100428.91;;;7.56;100.00
57656;BME280;43482;53.334;6.744;2022-12-22T09:51:09;100438.03;;;7.61;100.00
57656;BME280;43482;53.334;6.744;2022-12-22T09:53:35;100423.78;;;7.64;100.00
57656;BME280;43482;53.334;6.744;2022-12-22T09:56:01;100423.47;;;7.77;100.00
57656;BME280;43482;53.334;6.744;2022-12-22T09:58:30;100424.47;;;7.66;100.00
57656;BME280;43482;53.334;6.744;2022-12-22T10:06:13;100427.63;;;8.54;100.00
57656;BME280;43482;53.334;6.744;2022-12-22T10:08:40;100427.81;;;9.86;100.00
57656;BME280;43482;53.334;6.744;2022-12-22T10:11:06;100421.16;;;11.02;100.00
57656;BME280;43482;53.334;6.744;2022-12-22T10:13:32;100380.03;;;10.99;100.00
57656;BME280;43482;53.334;6.744;2022-12-22T10:15:57;100363.84;;;11.51;100.00
57656;BME280;43482;53.334;6.744;2022-12-22T10:18:26;100352.59;;;11.66;100.00
57656;BME280;43482;53.334;6.744;2022-12-22T10:21:11;100339.59;;;11.40;100.00
57656;BME280;43482;53.334;6.744;2022-12-22T10:23:38;100337.47;;;10.94;100.00
57656;BME280;43482;53.334;6.744;2022-12-22T10:26:11;100338.72;;;10.33;100.00
57656;BME280;43482;53.334;6.744;2022-12-22T10:28:42;100341.06;;;9.75;100.00
57656;BME280;43482;53.334;6.744;2022-12-22T10:31:10;100345.72;;;9.81;100.00
57656;BME280;43482;53.334;6.744;2022-12-22T10:33:35;100353.09;;;10.12;100.00
57656;BME280;43482;53.334;6.744;2022-12-22T10:36:00;100359.72;;;10.75;100.00
57656;BME280;43482;53.334;6.744;2022-12-22T10:38:29;100359.72;;;11.57;100.00
57656;BME280;43482;53.334;6.744;2022-12-22T10:40:56;100357.78;;;12.38;100.00
57656;BME280;43482;53.334;6.744;2022-12-22T10:43:23;100349.09;;;11.73;100.00
57656;BME280;43482;53.334;6.744;2022-12-22T10:45:49;100346.94;;;11.93;100.00
57656;BME280;43482;53.334;6.744;2022-12-22T10:48:15;100357.56;;;12.17;100.00
57656;BME280;43482;53.334;6.744;2022-12-22T10:50:47;100350.16;;;12.12;100.00
57656;BME280;43482;53.334;6.744;2022-12-22T10:53:13;100358.53;;;11.68;100.00
57656;BME280;43482;53.334;6.744;2022-12-22T10:55:38;100357.13;;;10.91;100.00
57656;BME280;43482;53.334;6.744;2022-12-22T11:00:36;100364.78;;;10.44;100.00
57656;BME280;43482;53.334;6.744;2022-12-22T11:03:08;100367.81;;;10.82;100.00
57656;BME280;43482;53.334;6.744;2022-12-22T11:05:35;100365.03;;;11.16;100.00
57656;BME280;43482;53.334;6.744;2022-12-22T11:08:06;100364.84;;;11.50;100.00
57656;BME280;43482;53.334;6.744;2022-12-22T11:10:46;100359.47;;;11.83;100.00
57656;BME280;43482;53.334;6.744;2022-12-22T11:15:59;100348.03;;;11.99;100.00
57656;BME280;43482;53.334;6.744;2022-12-22T11:23:50;100348.38;;;11.24;100.00
57656;BME280;43482;53.334;6.744;2022-12-22T11:26:54;100361.88;;;11.12;100.00
57656;BME280;43482;53.334;6.744;2022-12-22T11:31:56;100376.69;;;10.64;100.00
57656;BME280;43482;53.334;6.744;2022-12-22T11:34:31;100376.31;;;10.35;100.00
57656;BME280;43482;53.334;6.744;2022-12-22T11:37:25;100380.19;;;10.22;100.00
57656;BME280;43482;53.334;6.744;2022-12-22T11:39:53;100373.91;;;10.15;100.00
57656;BME280;43482;53.334;6.744;2022-12-22T11:45:08;100370.22;;;10.00;100.00
57656;BME280;43482;53.334;6.744;2022-12-22T11:47:51;100363.59;;;9.96;100.00
57656;BME280;43482;53.334;6.744;2022-12-22T11:51:02;100366.94;;;9.72;100.00
57656;BME280;43482;53.334;6.744;2022-12-22T11:53:18;100369.38;;;9.65;100.00
57656;BME280;43482;53.334;6.744;2022-12-22T12:16:32;100376.94;;;9.42;100.00
57656;BME280;43482;53.334;6.744;2022-12-22T12:21:48;100384.06;;;9.23;100.00
57656;BME280;43482;53.334;6.744;2022-12-22T12:24:20;100383.38;;;9.21;100.00
57656;BME280;43482;53.334;6.744;2022-12-22T12:29:19;100380.31;;;9.08;100.00
57656;BME280;43482;53.334;6.744;2022-12-22T12:34:14;100381.81;;;8.93;100.00
57656;BME280;43482;53.334;6.744;2022-12-22T12:44:22;100393.78;;;8.87;100.00
57656;BME280;43482;53.334;6.744;2022-12-22T12:52:04;100404.22;;;8.79;100.00
57656;BME280;43482;53.334;6.744;2022-12-22T12:54:34;100414.38;;;8.74;100.00
57656;BME280;43482;53.334;6.744;2022-12-22T12:57:08;100418.50;;;8.76;100.00
57656;BME280;43482;53.334;6.744;2022-12-22T13:02:50;100405.47;;;8.75;100.00
57656;BME280;43482;53.334;6.744;2022-12-22T13:05:01;100394.69;;;8.78;100.00
57656;BME280;43482;53.334;6.744;2022-12-22T13:08:28;100395.94;;;8.74;100.00
57656;BME280;43482;53.334;6.744;2022-12-22T13:10:22;100408.94;;;8.75;100.00
57656;BME280;43482;53.334;6.744;2022-12-22T13:12:49;100409.56;;;8.69;100.00
57656;BME280;43482;53.334;6.744;2022-12-22T13:15:34;100416.44;;;8.70;100.00
57656;BME280;43482;53.334;6.744;2022-12-22T13:18:01;100410.16;;;8.81;100.00
57656;BME280;43482;53.334;6.744;2022-12-22T13:20:29;100409.03;;;8.83;100.00
57656;BME280;43482;53.334;6.744;2022-12-22T13:22:55;100410.75;;;8.75;100.00
57656;BME280;43482;53.334;6.744;2022-12-22T13:25:22;100411.50;;;8.85;100.00
57656;BME280;43482;53.334;6.744;2022-12-22T13:27:48;100414.28;;;8.83;100.00
57656;BME280;43482;53.334;6.744;2022-12-22T13:30:15;100422.63;;;8.79;100.00
57656;BME280;43482;53.334;6.744;2022-12-22T13:32:41;100427.63;;;8.82;100.00
57656;BME280;43482;53.334;6.744;2022-12-22T13:35:17;100426.94;;;8.80;100.00
57656;BME280;43482;53.334;6.744;2022-12-22T13:37:45;100427.09;;;8.96;100.00
57656;BME280;43482;53.334;6.744;2022-12-22T13:40:14;100424.75;;;8.93;100.00
57656;BME280;43482;53.334;6.744;2022-12-22T13:42:42;100427.38;;;8.93;100.00
57656;BME280;43482;53.334;6.744;2022-12-22T13:45:17;100428.19;;;8.76;100.00
57656;BME280;43482;53.334;6.744;2022-12-22T13:47:43;100432.25;;;8.88;100.00
57656;BME280;43482;53.334;6.744;2022-12-22T13:50:19;100426.16;;;8.88;100.00
57656;BME280;43482;53.334;6.744;2022-12-22T13:52:45;100429.25;;;8.83;100.00
57656;BME280;43482;53.334;6.744;2022-12-22T13:55:14;100427.28;;;8.67;100.00
57656;BME280;43482;53.334;6.744;2022-12-22T13:57:40;100430.44;;;8.71;100.00
57656;BME280;43482;53.334;6.744;2022-12-22T14:00:15;100436.91;;;8.76;100.00
57656;BME280;43482;53.334;6.744;2022-12-22T14:02:41;100441.06;;;8.79;100.00
57656;BME280;43482;53.334;6.744;2022-12-22T14:05:09;100444.28;;;8.73;100.00
57656;BME280;43482;53.334;6.744;2022-12-22T14:07:35;100445.47;;;8.60;100.00
57656;BME280;43482;53.334;6.744;2022-12-22T14:10:00;100455.38;;;8.67;100.00
57656;BME280;43482;53.334;6.744;2022-12-22T14:12:26;100448.53;;;8.56;100.00
57656;BME280;43482;53.334;6.744;2022-12-22T14:14:53;100451.00;;;8.57;100.00
57656;BME280;43482;53.334;6.744;2022-12-22T14:17:20;100453.94;;;8.54;100.00
57656;BME280;43482;53.334;6.744;2022-12-22T14:19:47;100457.75;;;8.60;100.00
57656;BME280;43482;53.334;6.744;2022-12-22T14:22:14;100455.00;;;8.61;100.00
57656;BME280;43482;53.334;6.744;2022-12-22T14:24:51;100456.06;;;8.69;100.00
57656;BME280;43482;53.334;6.744;2022-12-22T14:27:26;100457.50;;;8.63;100.00
57656;BME280;43482;53.334;6.744;2022-12-22T14:29:54;100463.00;;;8.70;100.00
57656;BME280;43482;53.334;6.744;2022-12-22T14:32:36;100467.56;;;8.68;100.00
57656;BME280;43482;53.334;6.744;2022-12-22T14:35:02;100462.00;;;8.71;100.00